createdAt,value
2023-02-20T00:01:12.166Z,15.83
2023-02-20T00:03:41.620Z,14.10
2023-02-20T00:06:11.408Z,12.40
2023-02-20T00:08:41.258Z,12.80
2023-02-20T00:11:13.264Z,13.03
2023-02-20T00:13:48.270Z,13.27
2023-02-20T00:16:17.761Z,11.80
2023-02-20T00:18:48.160Z,13.60
2023-02-20T00:21:17.776Z,13.10
2023-02-20T00:23:47.370Z,12.97
2023-02-20T00:26:19.540Z,13.17
2023-02-20T00:28:49.584Z,10.65
2023-02-20T00:31:21.223Z,13.33
2023-02-20T00:33:50.680Z,12.03
2023-02-20T00:36:21.802Z,11.97
2023-02-20T00:38:51.274Z,13.17
2023-02-20T00:41:23.303Z,12.00
2023-02-20T00:43:52.672Z,11.15
2023-02-20T00:46:22.323Z,12.83
2023-02-20T00:48:52.246Z,11.70
2023-02-20T00:51:40.388Z,12.67
2023-02-20T00:54:09.825Z,11.80
2023-02-20T00:56:41.820Z,12.50
2023-02-20T00:59:11.259Z,15.35
2023-02-20T01:01:40.794Z,12.63
2023-02-20T01:04:10.281Z,13.57
2023-02-20T01:06:39.641Z,12.50
2023-02-20T01:09:08.985Z,13.33
2023-02-20T01:11:41.050Z,11.50
2023-02-20T01:14:10.422Z,11.45
2023-02-20T01:16:39.805Z,11.27
2023-02-20T01:19:09.366Z,10.40
2023-02-20T01:21:38.755Z,11.60
2023-02-20T01:24:08.813Z,11.97
2023-02-20T01:26:40.804Z,11.00
2023-02-20T01:29:10.194Z,11.57
2023-02-20T01:31:39.784Z,12.57
2023-02-20T01:34:11.602Z,10.52
2023-02-20T01:36:40.960Z,10.70
2023-02-20T01:39:10.950Z,11.53
2023-02-20T01:41:42.987Z,12.43
2023-02-20T01:44:20.789Z,10.50
2023-02-20T01:46:54.095Z,10.57
2023-02-20T01:49:29.517Z,8.27
2023-02-20T01:52:06.298Z,11.63
2023-02-20T01:54:36.762Z,10.20
2023-02-20T01:57:12.396Z,10.93
2023-02-20T01:59:44.823Z,10.97
2023-02-20T02:02:16.863Z,9.97
2023-02-20T02:04:47.352Z,10.87
2023-02-20T02:07:17.967Z,11.23
2023-02-20T02:09:52.761Z,11.23
2023-02-20T02:12:25.343Z,12.27
2023-02-20T02:14:54.714Z,12.88
2023-02-20T02:17:43.011Z,11.50
2023-02-20T02:20:36.492Z,10.83
2023-02-20T02:23:30.477Z,10.85
2023-02-20T02:26:11.122Z,11.83
2023-02-20T02:29:12.708Z,12.20
2023-02-20T02:32:24.068Z,12.23
2023-02-20T02:35:17.569Z,12.30
2023-02-20T02:37:52.806Z,13.07
2023-02-20T02:40:30.756Z,12.83
2023-02-20T02:43:10.462Z,13.57
2023-02-20T02:45:46.932Z,13.20
2023-02-20T02:48:22.909Z,13.37
2023-02-20T02:50:57.080Z,13.20
2023-02-20T02:53:29.081Z,12.80
2023-02-20T02:56:18.559Z,13.25
2023-02-20T02:58:48.398Z,14.00
2023-02-20T03:01:20.689Z,12.87
2023-02-20T03:03:55.587Z,14.57
2023-02-20T03:06:30.745Z,13.00
2023-02-20T03:09:07.018Z,15.03
2023-02-20T03:11:38.090Z,14.10
2023-02-20T03:14:23.642Z,14.77
2023-02-20T03:17:00.135Z,13.83
2023-02-20T03:19:35.838Z,14.80
2023-02-20T03:22:08.808Z,14.33
2023-02-20T03:24:55.300Z,14.83
2023-02-20T03:27:39.535Z,14.13
2023-02-20T03:30:18.553Z,15.47
2023-02-20T03:33:07.039Z,14.23
2023-02-20T03:35:53.876Z,15.70
2023-02-20T03:38:38.781Z,15.03
2023-02-20T03:41:24.924Z,15.07
2023-02-20T03:43:56.091Z,15.23
2023-02-20T03:46:27.317Z,15.80
2023-02-20T03:49:02.360Z,15.23
2023-02-20T03:51:44.610Z,15.07
2023-02-20T03:54:23.611Z,15.43
2023-02-20T03:57:00.095Z,16.10
2023-02-20T03:59:35.094Z,16.17
2023-02-20T04:02:08.867Z,16.83
2023-02-20T04:04:42.891Z,17.40
2023-02-20T04:07:22.226Z,17.30
2023-02-20T04:09:51.682Z,17.60
2023-02-20T04:12:28.093Z,18.27
2023-02-20T04:15:00.829Z,17.47
2023-02-20T04:20:02.937Z,19.38
2023-02-20T04:22:40.853Z,18.33
2023-02-20T04:25:17.565Z,17.70
2023-02-20T04:27:50.172Z,19.23
2023-02-20T04:30:19.870Z,18.00
2023-02-20T04:32:49.306Z,19.40
2023-02-20T04:35:21.026Z,18.80
2023-02-20T04:37:52.985Z,19.60
2023-02-20T04:40:25.461Z,18.70
2023-02-20T04:42:57.486Z,19.92
2023-02-20T04:45:26.947Z,17.52
2023-02-20T04:47:56.455Z,20.33
2023-02-20T04:50:28.560Z,19.10
2023-02-20T04:55:29.210Z,18.43
2023-02-20T04:58:04.937Z,17.13
2023-02-20T05:00:47.015Z,19.63
2023-02-20T05:03:17.016Z,18.53
2023-02-20T05:05:46.506Z,17.03
2023-02-20T05:08:15.879Z,17.80
2023-02-20T05:10:45.351Z,20.00
2023-02-20T05:13:17.382Z,16.47
2023-02-20T05:15:46.993Z,19.30
2023-02-20T05:18:16.492Z,16.80
2023-02-20T05:20:58.467Z,18.50
2023-02-20T05:23:27.866Z,17.83
2023-02-20T05:25:57.274Z,19.10
2023-02-20T05:28:29.288Z,17.40
2023-02-20T05:30:58.721Z,17.48
2023-02-20T05:33:28.124Z,16.53
2023-02-20T05:35:57.578Z,18.00
2023-02-20T05:38:26.922Z,17.73
2023-02-20T05:40:56.419Z,18.50
2023-02-20T05:43:25.830Z,17.13
2023-02-20T05:45:57.789Z,15.43
2023-02-20T05:48:27.170Z,18.17
2023-02-20T05:50:56.543Z,17.03
2023-02-20T05:53:26.810Z,15.80
2023-02-20T05:55:56.164Z,16.70
2023-02-20T05:58:26.433Z,16.87
2023-02-20T06:00:58.393Z,15.07
2023-02-20T06:03:27.762Z,16.48
2023-02-20T06:05:57.522Z,16.83
2023-02-20T06:08:26.950Z,15.97
2023-02-20T06:10:56.384Z,17.10
2023-02-20T06:13:25.756Z,15.47
2023-02-20T06:15:57.965Z,16.03
2023-02-20T06:18:27.384Z,16.90
2023-02-20T06:20:56.952Z,16.37
2023-02-20T06:23:26.476Z,18.63
2023-02-20T06:25:55.928Z,15.70
2023-02-20T06:28:25.471Z,14.23
2023-02-20T06:30:54.890Z,14.03
2023-02-20T06:33:27.153Z,14.80
2023-02-20T06:35:56.526Z,16.10
2023-02-20T06:38:26.070Z,14.33
2023-02-20T06:40:55.728Z,13.27
2023-02-20T06:43:25.261Z,14.63
2023-02-20T06:45:54.824Z,12.60
2023-02-20T06:48:26.871Z,13.70
2023-02-20T06:50:57.303Z,16.77
2023-02-20T06:53:26.690Z,13.90
2023-02-20T06:55:56.103Z,15.50
2023-02-20T06:58:25.457Z,16.03
2023-02-20T07:00:55.299Z,17.83
2023-02-20T07:03:27.365Z,15.27
2023-02-20T07:05:56.870Z,12.65
2023-02-20T07:08:26.333Z,15.97
2023-02-20T07:10:56.802Z,14.83
2023-02-20T07:13:26.224Z,15.63
2023-02-20T07:15:55.677Z,16.37
2023-02-20T07:18:28.111Z,15.77
2023-02-20T07:20:58.005Z,15.23
2023-02-20T07:23:27.529Z,16.80
2023-02-20T07:25:57.214Z,14.63
2023-02-20T07:28:27.069Z,16.87
2023-02-20T07:30:56.558Z,15.70
2023-02-20T07:33:28.548Z,16.97
2023-02-20T07:35:57.989Z,16.48
2023-02-20T07:38:27.412Z,15.80
2023-02-20T07:40:56.778Z,16.70
2023-02-20T07:43:26.169Z,16.50
2023-02-20T07:45:55.572Z,16.17
2023-02-20T07:48:25.030Z,15.03
2023-02-20T07:50:57.037Z,18.50
2023-02-20T07:53:26.497Z,16.08
2023-02-20T07:55:55.954Z,15.77
2023-02-20T07:58:25.388Z,16.77
2023-02-20T08:00:55.073Z,17.53
2023-02-20T08:03:24.446Z,19.70
2023-02-20T08:05:53.865Z,18.37
2023-02-20T08:08:26.258Z,18.50
2023-02-20T08:11:03.610Z,17.52
2023-02-20T08:13:37.964Z,20.65
2023-02-20T08:16:08.221Z,18.73
2023-02-20T08:18:37.671Z,19.17
2023-02-20T08:21:07.380Z,17.40
2023-02-20T08:23:39.392Z,18.00
2023-02-20T08:26:08.878Z,18.02
2023-02-20T08:28:38.280Z,20.70
2023-02-20T08:31:08.165Z,19.63
2023-02-20T08:33:37.581Z,21.00
2023-02-20T08:36:08.577Z,18.70
2023-02-20T08:38:41.604Z,18.83
2023-02-20T08:41:13.588Z,19.73
2023-02-20T08:43:46.105Z,21.92
2023-02-20T08:46:16.212Z,21.75
2023-02-20T08:48:46.303Z,21.93
2023-02-20T08:51:16.123Z,21.83
2023-02-20T08:53:48.161Z,26.07
2023-02-20T08:56:20.917Z,24.50
2023-02-20T09:01:19.712Z,24.23
2023-02-20T09:03:49.797Z,23.07
2023-02-20T09:06:19.444Z,25.33
2023-02-20T09:08:51.417Z,26.30
2023-02-20T09:11:22.007Z,24.20
2023-02-20T09:13:52.052Z,22.87
2023-02-20T09:16:24.330Z,24.17
2023-02-20T09:18:57.337Z,26.63
2023-02-20T09:21:28.666Z,22.70
2023-02-20T09:24:00.646Z,24.40
2023-02-20T09:26:30.126Z,25.08
2023-02-20T09:28:59.515Z,23.10
2023-02-20T09:31:29.023Z,25.17
2023-02-20T09:33:58.492Z,23.27
2023-02-20T09:36:27.862Z,23.53
2023-02-20T09:38:59.862Z,23.23
2023-02-20T09:41:44.859Z,24.95
2023-02-20T09:44:21.227Z,24.03
2023-02-20T09:46:52.566Z,23.90
2023-02-20T09:49:26.319Z,23.40
2023-02-20T09:51:59.003Z,24.30
2023-02-20T09:57:07.887Z,22.93
2023-02-20T09:59:43.693Z,25.10
2023-02-20T10:02:19.476Z,22.70
2023-02-20T10:05:00.812Z,24.00
2023-02-20T10:07:33.544Z,22.92
2023-02-20T10:10:19.740Z,24.67
2023-02-20T10:13:02.293Z,24.07
2023-02-20T10:15:41.379Z,23.83
2023-02-20T10:18:24.382Z,24.53
2023-02-20T10:23:45.618Z,25.83
2023-02-20T10:26:24.280Z,22.43
2023-02-20T10:28:54.377Z,22.90
2023-02-20T10:31:32.714Z,24.70
2023-02-20T10:34:09.424Z,26.27
2023-02-20T10:36:42.851Z,23.07
2023-02-20T10:39:15.500Z,24.07
2023-02-20T10:41:55.319Z,24.08
2023-02-20T10:44:35.465Z,23.83
2023-02-20T10:47:13.394Z,26.35
2023-02-20T10:49:48.447Z,24.37
2023-02-20T10:52:33.036Z,24.00
2023-02-20T10:55:11.934Z,22.53
2023-02-20T10:57:50.980Z,28.33
2023-02-20T11:00:25.606Z,26.77
2023-02-20T11:03:00.369Z,26.07
2023-02-20T11:05:35.295Z,24.50
2023-02-20T11:08:04.748Z,29.17
2023-02-20T11:10:35.444Z,27.60
2023-02-20T11:13:11.311Z,26.83
2023-02-20T11:15:40.979Z,29.63
2023-02-20T11:18:22.965Z,26.50
2023-02-20T11:20:52.698Z,26.23
2023-02-20T11:23:43.138Z,27.30
2023-02-20T11:26:32.154Z,29.13
2023-02-20T11:29:09.431Z,30.80
2023-02-20T11:31:39.508Z,27.87
2023-02-20T11:34:15.432Z,29.80
2023-02-20T11:36:47.997Z,28.67
2023-02-20T11:39:23.697Z,27.55
2023-02-20T11:42:06.953Z,31.03
2023-02-20T11:44:39.101Z,25.93
2023-02-20T11:47:30.681Z,25.08
2023-02-20T11:50:19.535Z,29.73
2023-02-20T11:53:05.326Z,30.40
2023-02-20T11:55:35.069Z,28.50
2023-02-20T11:58:05.914Z,30.60
2023-02-20T12:00:50.813Z,30.07
2023-02-20T12:03:24.711Z,32.03
2023-02-20T12:05:55.015Z,29.57
2023-02-20T12:08:45.994Z,30.13
2023-02-20T12:11:18.560Z,30.27
2023-02-20T12:13:49.814Z,32.15
2023-02-20T12:16:37.278Z,32.47
2023-02-20T12:19:18.396Z,29.17
2023-02-20T12:22:06.645Z,27.43
2023-02-20T12:24:54.363Z,28.10
2023-02-20T12:27:39.042Z,28.43
2023-02-20T12:30:27.419Z,27.00
2023-02-20T12:33:13.723Z,29.50
2023-02-20T12:35:55.007Z,28.63
2023-02-20T12:38:35.948Z,28.67
2023-02-20T12:41:24.827Z,30.17
2023-02-20T12:44:13.325Z,28.00
2023-02-20T12:46:52.330Z,28.53
2023-02-20T12:49:44.670Z,28.63
2023-02-20T12:52:34.569Z,28.80
2023-02-20T12:55:19.230Z,27.40
2023-02-20T12:57:54.246Z,29.30
2023-02-20T13:00:35.063Z,27.10
2023-02-20T13:03:12.777Z,30.07
2023-02-20T13:05:48.048Z,25.63
2023-02-20T13:08:21.109Z,25.87
2023-02-20T13:10:55.806Z,24.57
2023-02-20T13:13:26.405Z,24.77
2023-02-20T13:16:04.531Z,26.87
2023-02-20T13:18:46.323Z,28.00
2023-02-20T13:21:21.105Z,25.70
2023-02-20T13:23:53.284Z,24.10
2023-02-20T13:26:49.854Z,24.52
2023-02-20T13:29:23.307Z,25.93
2023-02-20T13:31:55.217Z,23.73
2023-02-20T13:34:39.521Z,23.52
2023-02-20T13:37:50.505Z,23.77
2023-02-20T13:40:39.854Z,22.47
2023-02-20T13:43:31.678Z,21.67
2023-02-20T13:46:30.431Z,23.30
2023-02-20T13:48:59.916Z,24.03
2023-02-20T13:51:37.616Z,23.87
2023-02-20T13:54:27.086Z,21.90
2023-02-20T13:57:02.634Z,20.40
2023-02-20T13:59:34.515Z,22.17
2023-02-20T14:02:07.031Z,21.48
2023-02-20T14:04:36.545Z,19.98
2023-02-20T14:07:06.065Z,20.43
2023-02-20T14:09:38.063Z,22.67
2023-02-20T14:12:10.965Z,22.40
2023-02-20T14:14:45.655Z,20.40
2023-02-20T14:17:19.421Z,20.40
2023-02-20T14:19:51.798Z,21.63
2023-02-20T14:22:29.773Z,21.33
2023-02-20T14:25:27.424Z,18.63
2023-02-20T14:28:09.111Z,19.03
2023-02-20T14:30:38.762Z,19.33
2023-02-20T14:33:21.596Z,19.53
2023-02-20T14:36:09.683Z,17.83
2023-02-20T14:38:52.707Z,18.27
2023-02-20T14:44:00.177Z,18.13
2023-02-20T14:46:32.608Z,16.43
2023-02-20T14:49:12.029Z,18.52
2023-02-20T14:51:41.905Z,19.00
2023-02-20T14:54:22.400Z,15.17
2023-02-20T14:56:55.501Z,18.47
2023-02-20T14:59:27.161Z,17.27
2023-02-20T15:01:59.742Z,18.13
2023-02-20T15:04:30.298Z,17.52
2023-02-20T15:07:06.965Z,16.30
2023-02-20T15:09:41.524Z,17.03
2023-02-20T15:12:22.692Z,16.00
2023-02-20T15:14:59.446Z,18.20
2023-02-20T15:17:31.403Z,17.30
2023-02-20T15:20:02.427Z,17.05
2023-02-20T15:22:37.059Z,19.33
2023-02-20T15:25:30.505Z,17.70
2023-02-20T15:28:11.795Z,18.13
2023-02-20T15:31:07.126Z,17.37
2023-02-20T15:33:38.571Z,16.57
2023-02-20T15:36:15.097Z,18.60
2023-02-20T15:38:44.699Z,16.47
2023-02-20T15:41:14.707Z,19.70
2023-02-20T15:43:50.707Z,16.77
2023-02-20T15:46:22.088Z,18.30
2023-02-20T15:48:51.605Z,17.73
2023-02-20T15:51:23.954Z,15.77
2023-02-20T15:53:55.895Z,18.80
2023-02-20T15:56:25.418Z,19.73
2023-02-20T15:58:57.491Z,17.43
2023-02-20T16:01:26.925Z,14.95
2023-02-20T16:03:56.359Z,14.67
2023-02-20T16:06:26.459Z,16.90
2023-02-20T16:08:56.358Z,17.73
2023-02-20T16:11:29.102Z,18.80
2023-02-20T16:16:36.017Z,15.87
2023-02-20T16:19:06.152Z,15.70
2023-02-20T16:21:35.575Z,17.30
2023-02-20T16:24:04.952Z,16.00
2023-02-20T16:26:36.659Z,15.13
2023-02-20T16:29:11.332Z,13.30
2023-02-20T16:32:10.916Z,15.20
2023-02-20T16:34:40.575Z,15.03
2023-02-20T16:37:12.912Z,13.47
2023-02-20T16:39:42.637Z,12.95
2023-02-20T16:42:33.093Z,14.53
2023-02-20T16:45:07.770Z,13.17
2023-02-20T16:47:37.209Z,14.83
2023-02-20T16:50:07.537Z,15.27
2023-02-20T16:52:39.947Z,14.43
2023-02-20T16:55:21.275Z,15.07
2023-02-20T16:57:50.836Z,13.63
2023-02-20T17:00:25.256Z,16.33
2023-02-20T17:02:55.275Z,14.30
2023-02-20T17:05:27.841Z,13.97
2023-02-20T17:07:57.716Z,13.75
2023-02-20T17:10:28.278Z,14.23
2023-02-20T17:13:02.354Z,13.63
2023-02-20T17:15:36.229Z,15.20
2023-02-20T17:18:07.585Z,14.07
2023-02-20T17:20:37.536Z,14.70
2023-02-20T17:23:06.893Z,15.97
2023-02-20T17:25:36.559Z,14.40
2023-02-20T17:28:07.944Z,14.47
2023-02-20T17:30:40.015Z,12.90
2023-02-20T17:33:09.479Z,14.43
2023-02-20T17:35:38.910Z,14.20
2023-02-20T17:38:08.310Z,14.53
2023-02-20T17:40:37.977Z,11.97
2023-02-20T17:43:07.884Z,13.17
2023-02-20T17:45:39.850Z,12.53
2023-02-20T17:48:09.453Z,12.13
2023-02-20T17:50:38.952Z,12.20
2023-02-20T17:53:09.190Z,12.20
2023-02-20T17:55:38.851Z,14.30
2023-02-20T17:58:09.041Z,12.60
2023-02-20T18:00:41.138Z,12.57
2023-02-20T18:03:10.710Z,13.18
2023-02-20T18:05:40.104Z,12.17
2023-02-20T18:08:09.504Z,13.07
2023-02-20T18:10:38.854Z,12.60
2023-02-20T18:13:08.321Z,12.93
2023-02-20T18:15:43.335Z,12.57
2023-02-20T18:18:15.705Z,13.90
2023-02-20T18:20:45.319Z,15.77
2023-02-20T18:23:14.721Z,13.13
2023-02-20T18:25:44.116Z,13.23
2023-02-20T18:28:13.981Z,12.33
2023-02-20T18:30:46.282Z,11.87
2023-02-20T18:33:16.174Z,14.15
2023-02-20T18:35:50.609Z,15.53
2023-02-20T18:38:28.019Z,14.27
2023-02-20T18:40:58.693Z,15.13
2023-02-20T18:43:28.462Z,14.07
2023-02-20T18:46:00.580Z,16.57
2023-02-20T18:48:29.993Z,15.32
2023-02-20T18:50:59.382Z,13.60
2023-02-20T18:53:28.771Z,14.60
2023-02-20T18:55:58.186Z,15.90
2023-02-20T18:58:27.801Z,13.70
2023-02-20T19:01:00.751Z,12.80
2023-02-20T19:03:30.405Z,14.57
2023-02-20T19:06:00.876Z,15.30
2023-02-20T19:08:30.271Z,15.30
2023-02-20T19:10:59.778Z,13.97
2023-02-20T19:13:29.204Z,14.20
2023-02-20T19:16:01.260Z,16.57
2023-02-20T19:18:32.353Z,15.02
2023-02-20T19:21:03.123Z,15.35
2023-02-20T19:23:32.891Z,15.90
2023-02-20T19:26:02.318Z,16.40
2023-02-20T19:28:33.092Z,15.70
2023-02-20T19:31:05.157Z,17.67
2023-02-20T19:33:34.640Z,16.27
2023-02-20T19:36:04.071Z,16.80
2023-02-20T19:38:34.773Z,15.70
2023-02-20T19:41:04.137Z,16.73
2023-02-20T19:43:33.478Z,17.50
2023-02-20T19:46:05.583Z,20.10
2023-02-20T19:48:34.962Z,19.48
2023-02-20T19:51:05.200Z,17.53
2023-02-20T19:53:35.948Z,19.83
2023-02-20T19:56:05.470Z,18.23
2023-02-20T19:58:36.638Z,16.90
2023-02-20T20:01:08.852Z,18.57
2023-02-20T20:03:38.218Z,17.25
2023-02-20T20:06:11.410Z,17.30
2023-02-20T20:08:56.579Z,17.53
2023-02-20T20:11:30.461Z,17.57
2023-02-20T20:13:59.795Z,16.97
2023-02-20T20:16:32.626Z,20.67
2023-02-20T20:19:02.355Z,18.20
2023-02-20T20:21:31.705Z,19.00
2023-02-20T20:24:01.430Z,19.80
2023-02-20T20:26:32.580Z,21.00
2023-02-20T20:29:02.972Z,19.00
2023-02-20T20:31:44.237Z,20.27
2023-02-20T20:34:13.604Z,18.77
2023-02-20T20:36:43.041Z,21.50
2023-02-20T20:39:12.422Z,20.50
2023-02-20T20:41:45.620Z,20.07
2023-02-20T20:44:15.260Z,19.37
2023-02-20T20:46:47.237Z,20.10
2023-02-20T20:49:16.637Z,25.27
2023-02-20T20:51:47.426Z,21.43
2023-02-20T20:54:16.828Z,23.63
2023-02-20T20:56:50.452Z,23.83
2023-02-20T20:59:20.328Z,23.90
2023-02-20T21:01:52.413Z,23.50
2023-02-20T21:04:21.831Z,25.45
2023-02-20T21:06:51.219Z,23.53
2023-02-20T21:09:20.774Z,23.53
2023-02-20T21:11:50.430Z,25.03
2023-02-20T21:14:20.618Z,25.70
2023-02-20T21:16:52.625Z,24.03
2023-02-20T21:19:23.947Z,24.48
2023-02-20T21:21:53.362Z,26.40
2023-02-20T21:24:23.462Z,27.57
2023-02-20T21:26:52.866Z,29.87
2023-02-20T21:29:22.256Z,26.23
2023-02-20T21:31:54.309Z,27.83
2023-02-20T21:34:23.668Z,28.17
2023-02-20T21:36:53.085Z,27.90
2023-02-20T21:39:24.145Z,28.13
2023-02-20T21:42:07.205Z,29.63
2023-02-20T21:44:39.100Z,30.97
2023-02-20T21:47:13.021Z,28.70
2023-02-20T21:49:45.994Z,29.73
2023-02-20T21:52:15.992Z,28.87
2023-02-20T21:54:49.828Z,29.93
2023-02-20T21:57:19.204Z,28.13
2023-02-20T21:59:45.857Z,30.87
2023-02-20T22:02:19.841Z,30.90
2023-02-20T22:04:46.567Z,32.80
2023-02-20T22:07:28.863Z,30.57
2023-02-20T22:10:10.764Z,28.27
2023-02-20T22:12:52.688Z,31.00
2023-02-20T22:15:34.621Z,30.53
2023-02-20T22:18:19.166Z,31.83
2023-02-20T22:21:01.092Z,35.03
2023-02-20T22:23:43.152Z,28.20
2023-02-20T22:26:25.770Z,28.58
2023-02-20T22:29:07.751Z,31.00
2023-02-20T22:31:49.847Z,26.60
2023-02-20T22:34:34.401Z,29.75
2023-02-20T22:37:16.317Z,33.97
2023-02-20T22:39:58.252Z,32.13
2023-02-20T22:42:40.161Z,30.33
2023-02-20T22:45:22.678Z,29.47
2023-02-20T22:48:04.576Z,30.65
2023-02-20T22:50:49.077Z,29.70
2023-02-20T22:53:30.990Z,29.93
2023-02-20T22:56:12.874Z,27.90
2023-02-20T22:58:54.771Z,28.53
2023-02-20T23:01:36.694Z,27.27
2023-02-20T23:04:19.003Z,28.07
2023-02-20T23:07:05.276Z,31.20
2023-02-20T23:09:47.434Z,27.47
2023-02-20T23:12:29.630Z,26.45
2023-02-20T23:15:11.838Z,27.45
2023-02-20T23:17:53.729Z,27.70
2023-02-20T23:20:37.818Z,27.87
2023-02-20T23:23:23.493Z,28.40
2023-02-20T23:26:05.466Z,29.37
2023-02-20T23:28:47.420Z,29.53
2023-02-20T23:31:30.757Z,28.00
2023-02-20T23:34:12.782Z,30.33
2023-02-20T23:37:01.334Z,29.17
2023-02-20T23:39:45.838Z,27.73
2023-02-20T23:42:27.697Z,30.23
2023-02-20T23:45:09.834Z,30.40
2023-02-20T23:47:51.755Z,27.38
2023-02-20T23:50:33.696Z,30.30
2023-02-20T23:53:15.657Z,31.93
2023-02-20T23:56:00.171Z,29.23
2023-02-20T23:58:44.626Z,31.10
